aviador You're here:

KDYB Decoded Metar

in
Report Time2018-05-26 07:55:00
UTC Time2018-05-26 08:00:00
Flight Rules mvfr MVFR
WindCalm
Visibility8047 m
Phenomena:Mist
Clouds:N/A
CeilingNone
Temp20°C
Dew Point20°C (100% RH)
QNH1016 hPa
Raw Report
METAR KDYB 260755Z AUTO 00000KT 5SM BR CLR 20/20 A2999 RMK AO1=

Extra information for KDYB:More info

Social comments